Time;durP1;ratioP1;P1;durP2;ratioP2;P2;SDS_P1;SDS_P2;PMS_P1;PMS_P2;Temp;Humidity;BMP_temperature;BMP_pressure;BME280_temperature;BME280_humidity;BME280_pressure;Samples;Min_cycle;Max_cycle;Signal;HPM_P1;HPM_P2
2023/06/24 00:00:46;;;;;;;13.60;12.25;;;20.30;99.90;;;;;;6270845;22;20099;-74
2023/06/24 00:03:16;;;;;;;12.10;11.10;;;20.30;99.90;;;;;;6244598;22;20004;-74
2023/06/24 00:05:43;;;;;;;13.43;12.02;;;20.30;99.90;;;;;;6243922;22;20003;-74
2023/06/24 00:08:08;;;;;;;11.88;10.68;;;20.20;99.90;;;;;;6272696;22;20003;-74
2023/06/24 00:10:34;;;;;;;12.85;11.48;;;20.20;99.90;;;;;;6272525;22;20000;-74
2023/06/24 00:13:02;;;;;;;12.15;11.05;;;20.20;99.90;;;;;;6245289;22;20011;-74
2023/06/24 00:15:28;;;;;;;14.18;12.88;;;20.10;99.90;;;;;;6272219;22;20353;-74
2023/06/24 00:17:54;;;;;;;12.93;11.65;;;20.10;99.90;;;;;;6244965;22;20086;-74
2023/06/24 00:20:19;;;;;;;14.70;12.65;;;20.10;99.90;;;;;;6273023;22;20003;-74
2023/06/24 00:22:48;;;;;;;14.60;12.63;;;20.10;99.90;;;;;;6272694;22;20339;-74
2023/06/24 00:25:14;;;;;;;14.18;10.50;;;20.10;99.90;;;;;;6272131;22;20086;-75
2023/06/24 00:27:41;;;;;;;12.82;11.43;;;20.10;99.90;;;;;;6272730;22;20007;-74
2023/06/24 00:30:08;;;;;;;14.25;11.68;;;20.00;99.90;;;;;;6271514;22;20133;-74
2023/06/24 00:32:33;;;;;;;14.10;12.68;;;20.00;99.90;;;;;;6272663;22;20069;-74
2023/06/24 00:34:59;;;;;;;12.75;11.52;;;20.00;99.90;;;;;;6272046;22;20004;-74
2023/06/24 00:37:25;;;;;;;12.15;10.95;;;20.00;99.90;;;;;;6272508;22;20078;-74
2023/06/24 00:39:51;;;;;;;14.02;12.65;;;20.00;99.90;;;;;;6272482;22;20455;-74
2023/06/24 00:42:17;;;;;;;14.07;12.35;;;20.00;99.90;;;;;;6244967;22;20448;-74
2023/06/24 00:44:43;;;;;;;13.57;12.32;;;20.00;99.90;;;;;;6272271;22;20010;-74
2023/06/24 00:47:09;;;;;;;12.70;11.40;;;20.00;99.90;;;;;;6245169;22;20004;-74
2023/06/24 00:49:35;;;;;;;14.75;11.48;;;20.10;99.90;;;;;;6272495;22;20000;-74
2023/06/24 00:52:01;;;;;;;12.73;11.48;;;20.10;99.90;;;;;;6272055;22;20452;-74
2023/06/24 00:54:30;;;;;;;13.48;12.30;;;20.10;99.90;;;;;;6272230;22;20003;-74
2023/06/24 00:57:00;;;;;;;12.75;11.68;;;20.10;99.90;;;;;;6272065;22;20065;-74
2023/06/24 00:59:28;;;;;;;13.75;12.35;;;20.10;99.90;;;;;;6244382;22;20061;-74
2023/06/24 01:01:55;;;;;;;12.50;11.38;;;20.00;99.90;;;;;;6271848;22;19995;-74
2023/06/24 01:04:20;;;;;;;14.20;12.75;;;20.00;99.90;;;;;;6271802;22;19996;-74
2023/06/24 01:06:46;;;;;;;13.68;12.32;;;20.00;99.90;;;;;;6271035;22;19992;-74
2023/06/24 01:09:12;;;;;;;14.05;12.80;;;19.90;99.90;;;;;;6244278;22;19996;-74
2023/06/24 01:11:39;;;;;;;14.18;12.98;;;19.90;99.90;;;;;;6243959;22;20007;-74
2023/06/24 01:14:04;;;;;;;13.57;12.38;;;19.80;99.90;;;;;;6244177;22;20015;-74
2023/06/24 01:16:47;;;;;;;14.50;13.05;;;19.80;99.90;;;;;;6271880;22;20000;-74
2023/06/24 01:19:56;;;;;;;13.32;12.02;;;19.80;99.90;;;;;;6271699;22;20012;-74
2023/06/24 01:22:48;;;;;;;13.35;12.05;;;19.70;99.90;;;;;;6244160;22;19996;-74
2023/06/24 01:25:55;;;;;;;13.13;12.02;;;19.70;99.90;;;;;;6271628;22;20087;-74
2023/06/24 01:28:45;;;;;;;13.02;11.82;;;19.70;99.90;;;;;;6244547;22;20004;-74
2023/06/24 01:31:40;;;;;;;15.88;14.45;;;19.60;99.90;;;;;;6271799;22;20054;-74
2023/06/24 01:34:29;;;;;;;14.27;12.98;;;19.60;99.90;;;;;;6271870;22;20418;-74
2023/06/24 01:37:02;;;;;;;15.38;13.93;;;19.50;99.90;;;;;;6271700;22;20000;-74
2023/06/24 01:39:31;;;;;;;15.25;13.82;;;19.50;99.90;;;;;;6245494;22;20361;-74
2023/06/24 01:42:08;;;;;;;16.90;15.27;;;19.40;99.90;;;;;;6274498;22;19996;-74
2023/06/24 01:44:34;;;;;;;18.67;16.23;;;19.40;99.90;;;;;;6275645;22;19995;-74
2023/06/24 01:47:03;;;;;;;16.42;14.93;;;19.40;99.90;;;;;;6275280;22;20000;-74
2023/06/24 01:49:30;;;;;;;16.77;14.98;;;19.40;99.90;;;;;;6248264;22;19999;-74
2023/06/24 01:51:58;;;;;;;19.42;16.05;;;19.40;99.90;;;;;;6275200;22;20000;-74
2023/06/24 01:54:26;;;;;;;20.75;15.82;;;19.40;99.90;;;;;;6275508;22;20004;-74
2023/06/24 01:56:54;;;;;;;18.98;17.38;;;19.40;99.90;;;;;;6274327;22;20000;-74
2023/06/24 01:59:21;;;;;;;17.25;15.63;;;19.40;99.90;;;;;;6274626;22;20080;-74
2023/06/24 02:01:48;;;;;;;17.08;15.48;;;19.50;99.90;;;;;;6247690;22;20072;-74
2023/06/24 02:04:15;;;;;;;16.80;15.05;;;19.50;99.90;;;;;;6246845;22;20007;-74
2023/06/24 02:06:42;;;;;;;16.85;15.38;;;19.40;99.90;;;;;;6274983;22;20006;-74
2023/06/24 02:09:11;;;;;;;17.67;16.02;;;19.40;99.90;;;;;;6247287;22;20095;-74
2023/06/24 02:11:37;;;;;;;17.20;15.75;;;19.40;99.90;;;;;;6274356;22;20000;-74
2023/06/24 02:14:05;;;;;;;21.10;17.20;;;19.30;99.90;;;;;;6247140;22;20093;-74
2023/06/24 02:16:33;;;;;;;19.65;17.65;;;19.30;99.90;;;;;;6274622;22;20087;-74
2023/06/24 02:19:00;;;;;;;18.02;16.23;;;19.30;99.90;;;;;;6274260;22;20444;-74
2023/06/24 02:21:28;;;;;;;20.15;18.02;;;19.30;99.90;;;;;;6247451;22;20004;-74
2023/06/24 02:23:54;;;;;;;19.52;17.23;;;19.30;99.90;;;;;;6274334;22;20006;-74
2023/06/24 02:26:20;;;;;;;20.00;18.00;;;19.30;99.90;;;;;;6273521;22;20000;-74
2023/06/24 02:28:46;;;;;;;18.67;16.95;;;19.20;99.90;;;;;;6274595;22;19992;-74
2023/06/24 02:31:14;;;;;;;19.95;17.67;;;19.20;99.90;;;;;;6246353;22;20047;-74
2023/06/24 02:33:40;;;;;;;20.77;17.65;;;19.20;99.90;;;;;;6274887;22;20436;-74
2023/06/24 02:36:05;;;;;;;20.00;17.40;;;19.10;99.90;;;;;;6247095;22;20091;-74
2023/06/24 02:38:31;;;;;;;18.90;17.13;;;19.10;99.90;;;;;;6247446;22;20016;-74
2023/06/24 02:40:58;;;;;;;20.95;18.83;;;19.10;99.90;;;;;;6274089;22;19995;-73
2023/06/24 02:43:23;;;;;;;19.55;17.70;;;19.00;99.90;;;;;;6274998;22;20010;-74
2023/06/24 02:45:50;;;;;;;19.98;17.98;;;19.00;99.90;;;;;;6247226;22;20003;-74
2023/06/24 02:48:17;;;;;;;18.42;16.63;;;19.00;99.90;;;;;;6246880;22;20278;-74
2023/06/24 02:50:44;;;;;;;19.38;17.60;;;18.90;99.90;;;;;;6274569;22;20035;-74
2023/06/24 02:53:11;;;;;;;19.60;17.63;;;18.90;99.90;;;;;;6244972;22;20000;-74
2023/06/24 02:55:40;;;;;;;17.92;16.20;;;18.90;99.90;;;;;;6245167;22;20182;-74
2023/06/24 02:58:08;;;;;;;19.73;17.42;;;18.80;99.90;;;;;;6245445;22;20318;-73
2023/06/24 03:00:34;;;;;;;19.75;17.85;;;18.80;99.90;;;;;;6272753;22;20432;-73
2023/06/24 03:03:05;;;;;;;19.33;17.38;;;18.80;99.90;;;;;;6272408;22;20107;-74
2023/06/24 03:05:32;;;;;;;19.17;17.33;;;18.80;99.90;;;;;;6245322;22;20031;-74
2023/06/24 03:07:58;;;;;;;19.45;17.42;;;18.70;99.90;;;;;;6272292;22;20098;-74
2023/06/24 03:10:25;;;;;;;17.95;16.15;;;18.70;99.90;;;;;;6272229;22;20445;-74
2023/06/24 03:12:51;;;;;;;18.08;16.33;;;18.70;99.90;;;;;;6272726;22;20506;-74
2023/06/24 03:15:17;;;;;;;17.38;15.75;;;18.70;99.90;;;;;;6244836;22;20011;-73
2023/06/24 03:17:42;;;;;;;18.85;17.15;;;18.60;99.90;;;;;;6272661;22;20329;-74
2023/06/24 03:20:08;;;;;;;21.52;18.98;;;18.70;99.90;;;;;;6245038;22;20004;-74
2023/06/24 03:22:34;;;;;;;20.90;18.35;;;18.60;99.90;;;;;;6245154;22;20004;-73
2023/06/24 03:25:00;;;;;;;20.38;18.38;;;18.60;99.90;;;;;;6272163;22;20014;-74
2023/06/24 03:27:25;;;;;;;19.70;17.80;;;18.60;99.90;;;;;;6272451;22;20075;-74
2023/06/24 03:29:51;;;;;;;22.25;19.88;;;18.50;99.90;;;;;;6245588;22;20056;-74
2023/06/24 03:32:17;;;;;;;20.60;18.60;;;18.50;99.90;;;;;;6271999;22;20004;-74
2023/06/24 03:34:42;;;;;;;19.35;17.55;;;18.50;99.90;;;;;;6272741;22;20010;-74
2023/06/24 03:37:08;;;;;;;20.45;18.42;;;18.50;99.90;;;;;;6244250;22;20110;-74
2023/06/24 03:39:34;;;;;;;20.10;18.13;;;18.50;99.90;;;;;;6272670;22;20045;-73
2023/06/24 03:41:59;;;;;;;21.95;18.27;;;18.50;99.90;;;;;;6272025;22;20010;-74
2023/06/24 03:44:26;;;;;;;20.08;18.17;;;18.50;99.90;;;;;;6245322;22;20066;-74
2023/06/24 03:46:52;;;;;;;18.27;16.38;;;18.50;99.90;;;;;;6245236;22;20004;-74
2023/06/24 03:49:18;;;;;;;20.75;18.67;;;18.50;99.90;;;;;;6271204;22;20303;-73
2023/06/24 03:51:46;;;;;;;19.75;18.00;;;18.50;99.90;;;;;;6271525;22;20031;-74
2023/06/24 03:54:11;;;;;;;19.02;17.33;;;18.40;99.90;;;;;;6242731;22;20000;-74
2023/06/24 03:56:37;;;;;;;19.75;17.63;;;18.40;99.90;;;;;;6243692;22;20086;-74
2023/06/24 03:59:03;;;;;;;21.05;18.65;;;18.40;99.90;;;;;;6243968;22;20069;-73
2023/06/24 04:01:31;;;;;;;18.85;17.15;;;18.40;99.90;;;;;;6271542;22;20401;-74
2023/06/24 04:03:57;;;;;;;19.35;17.35;;;18.40;99.90;;;;;;6244466;22;20004;-74
2023/06/24 04:06:23;;;;;;;20.75;18.92;;;18.40;99.90;;;;;;6244025;22;20008;-74
2023/06/24 04:08:48;;;;;;;22.63;19.15;;;18.50;99.90;;;;;;6244820;22;20000;-74
2023/06/24 04:11:14;;;;;;;20.13;18.02;;;18.50;99.90;;;;;;6244729;22;20141;-74
2023/06/24 04:13:40;;;;;;;21.67;19.52;;;18.50;99.90;;;;;;6245091;22;20103;-74
2023/06/24 04:16:05;;;;;;;21.67;19.50;;;18.50;99.90;;;;;;6244570;22;20023;-74
2023/06/24 04:18:31;;;;;;;22.60;20.23;;;18.50;99.90;;;;;;6272200;22;20015;-74
2023/06/24 04:20:57;;;;;;;23.73;21.35;;;18.50;99.90;;;;;;6243753;22;20367;-74
2023/06/24 04:23:23;;;;;;;22.13;19.98;;;18.50;99.90;;;;;;6272310;22;20360;-74
2023/06/24 04:25:49;;;;;;;21.90;19.92;;;18.60;99.90;;;;;;6244518;22;20440;-74
2023/06/24 04:28:14;;;;;;;21.75;19.65;;;18.60;99.90;;;;;;6244642;22;20000;-74
2023/06/24 04:30:40;;;;;;;22.30;20.00;;;18.60;99.90;;;;;;6244985;22;20094;-74
2023/06/24 04:33:06;;;;;;;22.33;20.08;;;18.60;99.90;;;;;;6244474;22;20011;-74
2023/06/24 04:35:32;;;;;;;21.55;19.55;;;18.60;99.90;;;;;;6271546;22;20417;-74
2023/06/24 04:37:57;;;;;;;23.20;20.45;;;18.60;99.90;;;;;;6244329;22;20004;-74
2023/06/24 04:40:23;;;;;;;21.73;19.42;;;18.60;99.90;;;;;;6271626;22;20003;-75
2023/06/24 04:42:48;;;;;;;22.50;20.15;;;18.60;99.90;;;;;;6244672;22;20065;-74
2023/06/24 04:45:14;;;;;;;23.20;20.77;;;18.70;99.90;;;;;;6244230;22;20726;-75
2023/06/24 04:47:40;;;;;;;21.73;19.63;;;18.70;99.90;;;;;;6272004;22;20076;-74
2023/06/24 04:50:09;;;;;;;23.58;20.13;;;18.70;99.90;;;;;;6270883;22;20691;-74
2023/06/24 04:52:35;;;;;;;21.90;19.70;;;18.80;99.90;;;;;;6271597;22;20007;-74
2023/06/24 04:55:00;;;;;;;21.42;19.42;;;18.80;99.90;;;;;;6271515;22;20007;-74
2023/06/24 04:57:28;;;;;;;22.75;19.42;;;18.80;99.90;;;;;;6271401;22;20008;-74
2023/06/24 04:59:54;;;;;;;23.00;20.77;;;18.90;99.90;;;;;;6271318;22;20012;-74
2023/06/24 05:02:20;;;;;;;22.35;20.02;;;18.90;99.90;;;;;;6271637;22;20134;-74
2023/06/24 05:04:46;;;;;;;21.75;19.42;;;18.90;99.90;;;;;;6270914;22;20010;-74
2023/06/24 05:07:11;;;;;;;22.08;19.77;;;18.90;99.90;;;;;;6244051;22;20422;-74
2023/06/24 05:09:37;;;;;;;21.42;19.23;;;19.00;99.90;;;;;;6271516;22;20003;-74
2023/06/24 05:12:04;;;;;;;22.55;20.27;;;19.00;99.90;;;;;;6244066;22;20213;-74
2023/06/24 05:14:30;;;;;;;19.83;17.85;;;19.10;99.90;;;;;;6243526;22;20003;-74
2023/06/24 05:16:55;;;;;;;19.30;17.50;;;19.10;99.90;;;;;;6271330;22;20000;-74
2023/06/24 05:19:21;;;;;;;19.58;17.60;;;19.10;99.90;;;;;;6270886;22;20087;-74
2023/06/24 05:21:47;;;;;;;17.70;15.88;;;19.20;99.90;;;;;;6271853;22;20429;-73
2023/06/24 05:24:13;;;;;;;18.02;16.20;;;19.20;99.90;;;;;;6243868;22;20003;-74
2023/06/24 05:26:38;;;;;;;17.88;16.10;;;19.20;99.90;;;;;;6271284;22;20000;-74
2023/06/24 05:29:04;;;;;;;16.50;14.93;;;19.30;99.90;;;;;;6244166;22;20077;-74
2023/06/24 05:31:29;;;;;;;16.00;14.15;;;19.30;99.90;;;;;;6271556;22;19996;-74
2023/06/24 05:33:55;;;;;;;17.33;15.07;;;19.40;99.90;;;;;;6270713;22;20474;-73
2023/06/24 05:36:20;;;;;;;16.45;14.75;;;19.40;99.90;;;;;;6271338;22;20008;-74
2023/06/24 05:38:48;;;;;;;15.18;13.68;;;19.40;99.90;;;;;;6271246;22;20347;-74
2023/06/24 05:41:14;;;;;;;16.02;14.40;;;19.50;99.90;;;;;;6269170;22;20010;-74
2023/06/24 05:43:39;;;;;;;15.90;14.40;;;19.50;99.90;;;;;;6241373;22;20020;-75
2023/06/24 05:46:05;;;;;;;17.33;14.98;;;19.60;99.90;;;;;;6269401;22;20115;-74
2023/06/24 05:48:31;;;;;;;15.70;14.10;;;19.60;99.90;;;;;;6270063;22;20010;-74
2023/06/24 05:50:56;;;;;;;15.30;13.80;;;19.70;99.90;;;;;;6270476;22;20425;-74
2023/06/24 05:53:22;;;;;;;17.27;15.40;;;19.80;99.90;;;;;;6244149;22;20003;-74
2023/06/24 05:55:48;;;;;;;17.17;14.88;;;19.80;99.90;;;;;;6244227;22;20029;-74
2023/06/24 05:58:13;;;;;;;16.33;14.73;;;19.90;99.90;;;;;;6271354;22;20058;-74
2023/06/24 06:00:39;;;;;;;18.67;15.10;;;19.90;99.90;;;;;;6271110;22;20019;-74
2023/06/24 06:03:05;;;;;;;16.05;14.43;;;20.00;99.90;;;;;;6270425;22;20007;-74
2023/06/24 06:05:30;;;;;;;15.60;13.75;;;20.10;99.90;;;;;;6271056;22;20004;-74
2023/06/24 06:07:56;;;;;;;15.75;14.15;;;20.10;99.90;;;;;;6243185;22;19999;-74
2023/06/24 06:10:21;;;;;;;15.35;13.73;;;20.20;99.90;;;;;;6270902;22;20030;-74
2023/06/24 06:12:47;;;;;;;15.77;14.25;;;20.20;99.90;;;;;;6271160;22;19996;-75
2023/06/24 06:15:13;;;;;;;16.58;14.10;;;20.20;99.90;;;;;;6243562;22;20102;-73
2023/06/24 06:17:38;;;;;;;15.05;13.52;;;20.30;99.90;;;;;;6270424;22;20069;-74
2023/06/24 06:20:05;;;;;;;16.02;14.27;;;20.30;99.90;;;;;;6243642;22;20000;-74
2023/06/24 06:22:32;;;;;;;15.63;14.05;;;20.40;99.90;;;;;;6271339;22;20000;-74
2023/06/24 06:24:57;;;;;;;16.13;14.52;;;20.40;99.90;;;;;;6271032;22;20000;-74
2023/06/24 06:27:23;;;;;;;16.10;13.48;;;20.40;99.90;;;;;;6272113;22;20003;-74
2023/06/24 06:29:48;;;;;;;14.93;13.43;;;20.50;99.90;;;;;;6245767;22;20004;-74
2023/06/24 06:32:14;;;;;;;14.48;13.07;;;20.50;99.90;;;;;;6272189;22;20413;-74
2023/06/24 06:34:40;;;;;;;18.08;13.23;;;20.60;99.90;;;;;;6245962;22;20039;-74
2023/06/24 06:37:05;;;;;;;14.90;13.30;;;20.60;99.90;;;;;;6272800;22;20057;-74
2023/06/24 06:39:31;;;;;;;15.07;13.68;;;20.70;99.90;;;;;;6272757;22;20049;-74
2023/06/24 06:41:57;;;;;;;15.18;13.65;;;20.70;99.90;;;;;;6245511;22;20061;-74
2023/06/24 06:44:22;;;;;;;16.90;15.10;;;20.80;99.90;;;;;;6273371;22;20435;-74
2023/06/24 06:46:48;;;;;;;14.65;13.13;;;20.80;99.90;;;;;;6272718;22;20079;-74
2023/06/24 06:49:13;;;;;;;16.92;13.43;;;20.90;99.90;;;;;;6272938;22;20008;-74
2023/06/24 06:51:39;;;;;;;14.43;11.57;;;20.90;99.90;;;;;;6273084;22;20329;-74
2023/06/24 06:54:04;;;;;;;14.30;12.75;;;21.00;99.90;;;;;;6245740;22;20054;-74
2023/06/24 06:56:30;;;;;;;14.63;12.55;;;21.00;99.90;;;;;;6273026;22;20122;-74
2023/06/24 06:58:55;;;;;;;12.05;10.85;;;21.10;99.90;;;;;;6245609;22;20010;-76
2023/06/24 07:01:21;;;;;;;12.70;9.40;;;21.10;99.90;;;;;;6272122;22;20073;-75
2023/06/24 07:03:48;;;;;;;9.18;7.80;;;21.20;99.90;;;;;;6273065;22;20084;-75
2023/06/24 07:06:14;;;;;;;10.02;8.77;;;21.20;99.90;;;;;;6272476;22;20004;-73
2023/06/24 07:08:40;;;;;;;9.68;8.77;;;21.30;99.90;;;;;;6272969;22;20006;-75
2023/06/24 07:11:05;;;;;;;8.73;7.65;;;21.30;99.90;;;;;;6272632;22;20004;-74
2023/06/24 07:13:31;;;;;;;8.95;7.55;;;21.30;99.70;;;;;;6272898;22;20362;-74
2023/06/24 07:15:56;;;;;;;9.88;8.05;;;21.40;99.60;;;;;;6271866;22;20000;-74
2023/06/24 07:18:22;;;;;;;9.93;8.35;;;21.40;99.30;;;;;;6245629;22;20011;-74
2023/06/24 07:20:48;;;;;;;9.43;8.52;;;21.50;99.40;;;;;;6245524;22;20004;-75
2023/06/24 07:23:14;;;;;;;8.63;7.78;;;21.50;99.20;;;;;;6245587;22;20012;-75
2023/06/24 07:25:39;;;;;;;10.75;7.70;;;21.60;99.00;;;;;;6272889;22;20024;-75
2023/06/24 07:28:05;;;;;;;9.15;8.18;;;21.70;98.90;;;;;;6272462;22;19999;-75
2023/06/24 07:30:31;;;;;;;8.52;7.32;;;21.70;98.50;;;;;;6272149;22;20587;-75
2023/06/24 07:32:56;;;;;;;8.85;7.97;;;21.80;98.30;;;;;;6272522;22;19996;-74
2023/06/24 07:35:22;;;;;;;9.35;8.35;;;21.80;98.30;;;;;;6273036;22;20087;-75
2023/06/24 07:37:48;;;;;;;8.05;6.95;;;21.90;98.30;;;;;;6273160;22;20028;-74
2023/06/24 07:40:14;;;;;;;8.52;7.68;;;22.00;98.10;;;;;;6272623;22;20037;-75
2023/06/24 07:42:41;;;;;;;8.35;7.55;;;22.10;97.80;;;;;;6273332;22;19999;-74
2023/06/24 07:45:07;;;;;;;7.93;6.07;;;22.10;97.30;;;;;;6272070;22;20262;-74
2023/06/24 07:47:32;;;;;;;7.05;6.00;;;22.20;97.00;;;;;;6273132;22;20411;-74
2023/06/24 07:49:58;;;;;;;8.20;6.63;;;22.30;96.70;;;;;;6272345;22;20073;-75
2023/06/24 07:52:24;;;;;;;8.85;7.70;;;22.40;96.40;;;;;;6272714;22;20070;-73
2023/06/24 07:54:49;;;;;;;6.93;6.32;;;22.50;96.10;;;;;;6245421;22;20004;-74
2023/06/24 07:57:15;;;;;;;9.45;6.90;;;22.50;95.90;;;;;;6272303;22;20433;-74
2023/06/24 07:59:41;;;;;;;7.82;7.10;;;22.60;95.80;;;;;;6239865;23;20402;-74
2023/06/24 08:02:07;;;;;;;7.45;6.65;;;22.70;95.50;;;;;;6241913;22;20081;-74
2023/06/24 08:04:33;;;;;;;8.93;8.02;;;22.80;95.50;;;;;;6240505;23;20095;-74
2023/06/24 08:06:59;;;;;;;6.90;5.18;;;22.90;95.30;;;;;;6241666;22;20023;-74
2023/06/24 08:09:24;;;;;;;6.57;5.55;;;23.00;95.00;;;;;;6241595;22;20348;-74
2023/06/24 08:11:50;;;;;;;6.55;5.85;;;23.10;94.50;;;;;;6240252;23;20012;-74
2023/06/24 08:14:16;;;;;;;8.30;6.40;;;23.10;94.20;;;;;;6240882;22;20303;-74
2023/06/24 08:16:41;;;;;;;9.27;8.38;;;23.20;94.10;;;;;;6241836;23;20004;-75
2023/06/24 08:19:07;;;;;;;9.55;7.30;;;23.30;93.70;;;;;;6239867;23;20000;-74
2023/06/24 08:21:34;;;;;;;10.00;7.30;;;23.40;93.80;;;;;;6240086;23;20418;-74
2023/06/24 08:23:59;;;;;;;7.80;5.90;;;23.50;93.70;;;;;;6241437;22;20015;-74
2023/06/24 08:26:25;;;;;;;8.23;7.28;;;23.50;93.80;;;;;;6241422;22;19996;-74
2023/06/24 08:28:51;;;;;;;6.60;5.85;;;23.60;93.40;;;;;;6241084;22;20004;-73
2023/06/24 08:31:16;;;;;;;6.75;6.15;;;23.80;92.90;;;;;;6239144;23;20007;-75
2023/06/24 08:33:45;;;;;;;6.93;6.22;;;23.90;92.30;;;;;;6240465;23;20004;-74
2023/06/24 08:36:11;;;;;;;9.18;6.55;;;24.00;91.70;;;;;;6241619;22;20512;-74
2023/06/24 08:38:37;;;;;;;6.93;6.22;;;24.10;91.20;;;;;;6241823;22;20414;-75
2023/06/24 08:41:02;;;;;;;5.82;5.03;;;24.10;90.90;;;;;;6241745;22;20004;-74
2023/06/24 08:43:28;;;;;;;7.35;6.53;;;24.20;90.80;;;;;;6239631;23;20014;-75
2023/06/24 08:45:54;;;;;;;8.18;7.38;;;24.30;90.50;;;;;;6241545;22;20022;-74
2023/06/24 08:48:20;;;;;;;9.48;7.72;;;24.40;90.50;;;;;;6241702;22;20023;-75
2023/06/24 08:50:52;;;;;;;7.72;6.90;;;24.50;90.20;;;;;;6241738;22;20003;-74
2023/06/24 08:53:20;;;;;;;8.15;6.68;;;24.60;89.10;;;;;;6240045;23;20126;-75
2023/06/24 08:55:46;;;;;;;7.18;6.15;;;24.70;89.20;;;;;;6241896;22;20046;-75
2023/06/24 08:58:13;;;;;;;8.15;7.15;;;24.80;88.00;;;;;;6240554;22;20004;-74
2023/06/24 09:00:39;;;;;;;7.90;6.72;;;24.90;87.40;;;;;;6262116;22;20039;-75
2023/06/24 09:03:04;;;;;;;6.53;5.85;;;25.00;87.20;;;;;;6271810;22;20006;-74
2023/06/24 09:05:30;;;;;;;6.40;5.80;;;25.00;85.90;;;;;;6271583;22;20003;-72
2023/06/24 09:07:56;;;;;;;6.90;5.97;;;25.20;86.10;;;;;;6271904;22;20027;-73
2023/06/24 09:10:35;;;;;;;6.15;5.55;;;25.30;85.60;;;;;;6271701;22;19999;-74
2023/06/24 09:13:02;;;;;;;7.03;5.72;;;25.40;85.10;;;;;;6272054;22;20382;-74
2023/06/24 09:15:35;;;;;;;7.38;6.63;;;25.60;85.00;;;;;;6245062;22;20004;-75
2023/06/24 09:18:04;;;;;;;7.53;6.15;;;25.80;83.80;;;;;;6270690;22;20018;-74
2023/06/24 09:20:31;;;;;;;6.70;5.63;;;25.90;83.30;;;;;;6271878;22;20325;-74
2023/06/24 09:23:04;;;;;;;7.43;4.53;;;26.00;82.20;;;;;;6244208;22;20053;-74
2023/06/24 09:25:30;;;;;;;5.22;4.50;;;26.10;81.30;;;;;;6270250;22;20473;-74
2023/06/24 09:28:03;;;;;;;7.32;5.57;;;26.20;80.70;;;;;;6244085;22;20015;-74
2023/06/24 09:30:29;;;;;;;5.82;5.18;;;26.40;79.30;;;;;;6271415;22;19995;-74
2023/06/24 09:32:56;;;;;;;5.82;5.03;;;26.40;78.90;;;;;;6271006;22;20214;-74
2023/06/24 09:35:24;;;;;;;6.72;4.75;;;26.40;79.10;;;;;;6244234;22;20012;-74
2023/06/24 09:37:57;;;;;;;8.10;6.80;;;26.40;79.50;;;;;;6271822;22;20020;-74
2023/06/24 09:40:23;;;;;;;9.55;6.45;;;26.40;78.90;;;;;;6271079;22;20038;-73
2023/06/24 09:42:56;;;;;;;5.95;5.43;;;26.40;79.10;;;;;;6271215;22;20100;-74
2023/06/24 09:45:25;;;;;;;6.10;4.68;;;26.40;80.30;;;;;;6271787;22;20321;-74
2023/06/24 09:47:50;;;;;;;6.90;6.20;;;26.30;78.90;;;;;;6271406;22;20000;-74
2023/06/24 09:50:16;;;;;;;6.65;5.60;;;26.30;78.60;;;;;;6271019;22;20432;-74
2023/06/24 09:52:44;;;;;;;5.72;5.22;;;26.20;78.00;;;;;;6271812;22;20141;-72
2023/06/24 09:55:12;;;;;;;7.65;6.40;;;26.20;78.40;;;;;;6270271;22;20004;-72
2023/06/24 09:57:38;;;;;;;6.72;5.40;;;26.10;77.90;;;;;;6271245;22;19996;-72
2023/06/24 10:00:05;;;;;;;6.95;6.22;;;26.00;78.30;;;;;;6270423;22;20027;-74
2023/06/24 10:02:32;;;;;;;5.75;5.15;;;26.00;78.60;;;;;;6273136;22;20015;-75
2023/06/24 10:05:00;;;;;;;5.32;4.70;;;26.00;78.50;;;;;;6273085;22;20003;-74
2023/06/24 10:07:27;;;;;;;7.05;6.13;;;26.00;78.30;;;;;;6272161;22;19995;-75
2023/06/24 10:09:53;;;;;;;7.07;6.38;;;26.00;77.70;;;;;;6272989;22;20035;-74
2023/06/24 10:12:19;;;;;;;7.78;6.93;;;25.90;76.40;;;;;;6273807;22;20299;-73
2023/06/24 10:14:45;;;;;;;6.22;5.72;;;25.90;76.90;;;;;;6274134;22;20008;-74
2023/06/24 10:17:11;;;;;;;7.20;6.32;;;25.90;77.50;;;;;;6273859;22;20003;-74
2023/06/24 10:19:39;;;;;;;7.05;6.35;;;25.90;77.50;;;;;;6273335;22;20030;-73
2023/06/24 10:22:11;;;;;;;7.32;6.43;;;25.90;77.90;;;;;;6273631;22;20007;-73
2023/06/24 10:24:44;;;;;;;6.57;5.60;;;25.90;77.60;;;;;;6245838;22;20010;-73
2023/06/24 10:27:15;;;;;;;7.47;6.78;;;26.00;76.90;;;;;;6273318;22;20028;-73
2023/06/24 10:29:46;;;;;;;6.05;5.45;;;26.00;75.70;;;;;;6247250;22;20033;-74
2023/06/24 10:32:12;;;;;;;6.60;4.85;;;26.00;76.30;;;;;;6245808;22;20019;-73
2023/06/24 10:34:37;;;;;;;6.80;4.95;;;26.00;76.60;;;;;;6273801;22;20000;-73
2023/06/24 10:37:26;;;;;;;6.95;5.63;;;26.10;76.50;;;;;;6273224;22;19996;-73
2023/06/24 10:39:59;;;;;;;6.90;5.72;;;26.10;75.90;;;;;;6273338;22;20004;-73
2023/06/24 10:42:45;;;;;;;7.95;6.60;;;26.10;76.80;;;;;;6273860;22;20413;-74
2023/06/24 10:45:12;;;;;;;7.15;5.85;;;26.20;75.50;;;;;;6246674;22;20004;-73
2023/06/24 10:47:39;;;;;;;9.98;7.88;;;26.20;75.50;;;;;;6273755;22;20266;-73
2023/06/24 10:50:07;;;;;;;8.18;6.72;;;26.20;75.50;;;;;;6273238;22;20307;-74
2023/06/24 10:52:37;;;;;;;12.98;7.05;;;26.20;75.20;;;;;;6273157;22;19995;-73
2023/06/24 10:55:03;;;;;;;7.40;6.68;;;26.20;75.50;;;;;;6272919;22;20065;-73
2023/06/24 10:57:29;;;;;;;6.70;6.03;;;26.30;75.40;;;;;;6273697;22;20081;-74
2023/06/24 10:59:56;;;;;;;7.57;6.88;;;26.30;75.80;;;;;;6273401;22;20046;-73
2023/06/24 11:02:24;;;;;;;7.13;6.50;;;26.40;76.00;;;;;;6273675;22;20452;-73
2023/06/24 11:04:52;;;;;;;6.55;5.68;;;26.40;75.90;;;;;;6273730;22;20086;-73
2023/06/24 11:07:23;;;;;;;6.35;5.50;;;26.50;76.30;;;;;;6272938;22;20023;-73
2023/06/24 11:09:56;;;;;;;6.60;5.82;;;26.60;76.00;;;;;;6273655;22;19995;-74
2023/06/24 11:12:33;;;;;;;13.73;8.80;;;26.60;75.60;;;;;;6272908;22;19996;-74
2023/06/24 11:15:00;;;;;;;9.63;5.75;;;26.60;74.70;;;;;;6273058;22;19999;-74
2023/06/24 11:17:27;;;;;;;7.63;6.90;;;26.60;76.00;;;;;;6246332;22;20011;-74
2023/06/24 11:19:53;;;;;;;10.23;8.45;;;26.60;75.80;;;;;;6273082;22;20010;-73
2023/06/24 11:22:19;;;;;;;8.43;6.80;;;26.60;75.20;;;;;;6245540;22;20011;-74
2023/06/24 11:24:45;;;;;;;7.15;6.22;;;26.60;75.70;;;;;;6273256;22;20075;-74
2023/06/24 11:27:10;;;;;;;6.03;5.50;;;26.70;76.00;;;;;;6272656;22;20046;-74
2023/06/24 11:29:36;;;;;;;9.68;7.13;;;26.70;75.90;;;;;;6246156;22;20322;-74
2023/06/24 11:32:02;;;;;;;6.85;6.15;;;26.70;75.10;;;;;;6273168;22;20017;-74
2023/06/24 11:34:29;;;;;;;7.35;5.60;;;26.70;74.80;;;;;;6272412;22;20007;-74
2023/06/24 11:36:55;;;;;;;6.07;5.47;;;26.70;75.10;;;;;;6244944;22;20034;-75
2023/06/24 11:39:25;;;;;;;8.43;6.38;;;26.80;74.90;;;;;;6272907;22;19999;-74
2023/06/24 11:41:51;;;;;;;7.45;6.43;;;26.80;74.40;;;;;;6273229;22;19996;-75
2023/06/24 11:44:19;;;;;;;8.52;6.93;;;26.80;74.00;;;;;;6245812;22;20078;-74
2023/06/24 11:46:45;;;;;;;10.05;6.45;;;26.80;73.90;;;;;;6273462;22;20310;-73
2023/06/24 11:49:10;;;;;;;6.50;5.82;;;26.80;73.90;;;;;;6245710;22;20010;-74
2023/06/24 11:51:36;;;;;;;7.07;5.32;;;26.80;73.70;;;;;;6272218;22;19996;-74
2023/06/24 11:54:04;;;;;;;7.22;6.53;;;26.80;73.40;;;;;;6272492;22;20414;-74
2023/06/24 11:56:37;;;;;;;6.30;5.70;;;26.80;72.80;;;;;;6273059;22;20014;-73
2023/06/24 11:59:06;;;;;;;5.68;4.95;;;26.70;72.50;;;;;;6245385;22;20003;-75
2023/06/24 12:01:33;;;;;;;7.20;4.57;;;26.70;72.80;;;;;;6246219;22;20039;-74
2023/06/24 12:04:15;;;;;;;5.40;4.63;;;26.70;73.20;;;;;;6273184;22;19996;-74
2023/06/24 12:06:41;;;;;;;5.45;4.80;;;26.70;73.20;;;;;;6272639;22;20004;-74
2023/06/24 12:09:10;;;;;;;6.00;5.03;;;26.80;74.20;;;;;;6246095;22;20014;-74
2023/06/24 12:11:37;;;;;;;6.82;6.20;;;26.90;73.90;;;;;;6246462;22;20004;-74
2023/06/24 12:14:03;;;;;;;6.00;5.38;;;26.90;73.90;;;;;;6273528;22;19996;-73
2023/06/24 12:16:29;;;;;;;6.00;4.50;;;26.90;74.80;;;;;;6273456;22;20035;-74
2023/06/24 12:18:55;;;;;;;8.07;6.90;;;27.00;75.10;;;;;;6272503;22;20010;-75
2023/06/24 12:21:21;;;;;;;8.15;7.35;;;27.00;74.80;;;;;;6272490;22;20000;-74
2023/06/24 12:23:47;;;;;;;7.70;6.85;;;27.10;74.60;;;;;;6246355;22;20333;-74
2023/06/24 12:26:13;;;;;;;6.63;6.00;;;27.10;74.80;;;;;;6272852;22;20003;-72
2023/06/24 12:28:39;;;;;;;9.25;6.18;;;27.10;74.60;;;;;;6273309;22;19996;-74
2023/06/24 12:31:04;;;;;;;6.60;5.80;;;27.10;74.40;;;;;;6273274;22;20062;-74
2023/06/24 12:33:30;;;;;;;7.35;6.45;;;27.10;74.00;;;;;;6273480;22;20022;-74
2023/06/24 12:35:56;;;;;;;8.55;5.82;;;27.10;74.00;;;;;;6271842;22;20453;-74